Time;durP1;ratioP1;P1;durP2;ratioP2;P2;SDS_P1;SDS_P2;PMS_P1;PMS_P2;Temp;Humidity;BMP_temperature;BMP_pressure;BME280_temperature;BME280_humidity;BME280_pressure;Samples;Min_cycle;Max_cycle;Signal;HPM_P1;HPM_P2
2021/12/11 00:00:30;;;;;;;2.30;1.23;;;;;;;3.30;100.00;98989.75;5045692;28;20470;-48
2021/12/11 00:03:00;;;;;;;0.20;0.10;;;;;;;3.29;100.00;98988.03;5051383;28;20454;-49
2021/12/11 00:05:28;;;;;;;0.30;0.20;;;;;;;3.24;100.00;99001.22;5049148;28;21017;-49
2021/12/11 00:07:55;;;;;;;0.30;0.20;;;;;;;3.25;100.00;98999.47;5043797;28;20451;-48
2021/12/11 00:10:27;;;;;;;0.30;0.20;;;;;;;3.38;100.00;99003.56;5048720;28;20537;-48
2021/12/11 00:12:59;;;;;;;0.70;0.67;;;;;;;3.45;100.00;99007.81;5041488;28;20443;-48
2021/12/11 00:15:39;;;;;;;0.20;0.10;;;;;;;3.34;100.00;99019.44;5050704;28;20556;-49
2021/12/11 00:18:10;;;;;;;0.20;0.10;;;;;;;3.47;100.00;99024.41;5043892;28;21550;-48
2021/12/11 00:20:43;;;;;;;0.20;0.10;;;;;;;3.51;100.00;99027.81;5037112;28;20475;-49
2021/12/11 00:23:10;;;;;;;0.30;0.30;;;;;;;3.51;100.00;99028.69;5039627;28;20502;-48
2021/12/11 00:25:44;;;;;;;0.20;0.10;;;;;;;3.53;100.00;99032.16;5042591;28;20456;-49
2021/12/11 00:28:12;;;;;;;0.20;0.10;;;;;;;3.51;100.00;99035.72;5043790;28;20501;-49
2021/12/11 00:30:42;;;;;;;0.20;0.10;;;;;;;3.53;100.00;99037.41;5042056;28;20503;-48
2021/12/11 00:33:23;;;;;;;0.30;0.20;;;;;;;3.46;100.00;99041.06;5048528;28;20545;-48
2021/12/11 00:35:51;;;;;;;0.20;0.10;;;;;;;3.44;100.00;99042.84;5041936;28;20475;-48
2021/12/11 00:38:23;;;;;;;0.20;0.10;;;;;;;3.45;100.00;99048.97;5040301;28;20832;-49
2021/12/11 00:40:51;;;;;;;1.50;1.50;;;;;;;3.39;100.00;99051.72;5043154;28;20538;-49
2021/12/11 00:43:21;;;;;;;0.20;0.20;;;;;;;3.40;100.00;99067.44;5044943;28;20498;-49
2021/12/11 00:45:49;;;;;;;0.20;0.10;;;;;;;3.47;100.00;99076.06;5040662;28;20455;-49
2021/12/11 00:48:21;;;;;;;0.20;0.10;;;;;;;3.36;100.00;99083.28;5044999;28;20896;-48
2021/12/11 00:50:55;;;;;;;0.20;0.10;;;;;;;3.44;100.00;99086.66;5045505;28;20894;-49
2021/12/11 00:53:29;;;;;;;0.20;0.10;;;;;;;3.55;100.00;99095.16;5046810;28;20815;-48
2021/12/11 00:55:59;;;;;;;0.20;0.10;;;;;;;3.48;100.00;99098.81;5044754;28;20521;-48
2021/12/11 00:58:29;;;;;;;0.40;0.40;;;;;;;3.50;100.00;99097.88;5047964;28;20490;-48
2021/12/11 01:01:08;;;;;;;0.30;0.30;;;;;;;3.50;100.00;99107.53;5041091;28;20850;-48
2021/12/11 01:03:51;;;;;;;0.20;0.10;;;;;;;3.45;100.00;99114.66;5048534;28;20864;-49
2021/12/11 01:06:34;;;;;;;0.20;0.10;;;;;;;3.51;100.00;99131.13;5041140;28;20448;-48
2021/12/11 01:09:06;;;;;;;0.20;0.10;;;;;;;3.54;100.00;99125.81;5047567;28;20529;-49
2021/12/11 01:11:38;;;;;;;0.60;0.60;;;;;;;3.49;100.00;99132.06;5046927;28;20455;-48
2021/12/11 01:14:55;;;;;;;0.20;0.10;;;;;;;3.43;100.00;99138.31;5050530;28;20505;-49
2021/12/11 01:17:23;;;;;;;0.20;0.10;;;;;;;3.54;100.00;99149.47;5037426;28;20525;-48
2021/12/11 01:19:54;;;;;;;0.20;0.20;;;;;;;3.63;100.00;99165.97;5048083;28;20991;-48
2021/12/11 01:22:34;;;;;;;0.20;0.10;;;;;;;3.59;100.00;99173.03;5044452;28;20487;-50
2021/12/11 01:25:25;;;;;;;0.20;0.10;;;;;;;3.51;100.00;99175.78;5043925;28;20451;-48
2021/12/11 01:27:56;;;;;;;3.03;2.93;;;;;;;3.47;100.00;99175.88;5047547;28;20798;-48
2021/12/11 01:30:28;;;;;;;0.20;0.10;;;;;;;3.56;100.00;99181.84;5043462;28;20537;-50
2021/12/11 01:32:55;;;;;;;0.20;0.10;;;;;;;3.39;100.00;99191.75;5038343;28;20475;-48
2021/12/11 01:35:22;;;;;;;16.30;1.27;;;;;;;3.45;100.00;99191.69;5049600;28;20498;-48
2021/12/11 01:38:01;;;;;;;0.27;0.13;;;;;;;3.59;100.00;99194.06;5050934;28;20439;-48
2021/12/11 01:40:31;;;;;;;0.20;0.20;;;;;;;3.51;100.00;99201.19;5048900;28;20532;-50
2021/12/11 01:43:02;;;;;;;0.20;0.10;;;;;;;3.52;100.00;99222.19;5048914;28;21010;-49
2021/12/11 01:45:31;;;;;;;0.20;0.10;;;;;;;3.36;100.00;99212.84;5042767;28;20538;-49
2021/12/11 01:47:57;;;;;;;0.20;0.10;;;;;;;3.46;100.00;99221.44;5044897;28;20969;-48
2021/12/11 01:50:38;;;;;;;0.20;0.10;;;;;;;3.47;100.00;99221.41;5051838;28;20507;-48
2021/12/11 01:53:10;;;;;;;0.20;0.10;;;;;;;3.50;100.00;99231.00;5046442;28;20497;-48
2021/12/11 01:55:43;;;;;;;3.03;2.63;;;;;;;3.47;100.00;99246.81;5036166;28;20490;-49
2021/12/11 01:58:13;;;;;;;0.20;0.10;;;;;;;3.59;100.00;99249.22;5043621;28;20886;-48
2021/12/11 02:00:48;;;;;;;0.20;0.10;;;;;;;3.54;100.00;99258.94;5038400;28;20521;-49
2021/12/11 02:03:20;;;;;;;0.20;0.10;;;;;;;3.65;100.00;99262.25;5045164;28;20487;-49
2021/12/11 02:05:48;;;;;;;0.30;0.20;;;;;;;3.71;100.00;99275.28;5052626;28;20482;-48
2021/12/11 02:08:19;;;;;;;0.20;0.10;;;;;;;3.73;100.00;99284.03;5042121;28;20510;-49
2021/12/11 02:10:52;;;;;;;0.20;0.10;;;;;;;3.65;100.00;99285.91;5038719;28;20468;-48
2021/12/11 02:13:34;;;;;;;0.20;0.10;;;;;;;3.75;100.00;99295.38;5041364;28;20986;-48
2021/12/11 02:16:02;;;;;;;0.20;0.10;;;;;;;3.96;100.00;99299.38;5042553;28;20475;-49
2021/12/11 02:18:35;;;;;;;0.20;0.10;;;;;;;3.90;100.00;99302.13;5048139;28;20864;-49
2021/12/11 02:21:06;;;;;;;0.30;0.20;;;;;;;3.66;100.00;99306.03;5046723;28;20474;-49
2021/12/11 02:23:33;;;;;;;0.20;0.20;;;;;;;3.76;100.00;99307.59;5048102;28;20486;-48
2021/12/11 02:26:13;;;;;;;0.20;0.20;;;;;;;3.84;100.00;99321.50;5048737;28;20953;-48
2021/12/11 02:28:42;;;;;;;0.20;0.10;;;;;;;3.88;100.00;99318.81;5046894;28;21024;-48
2021/12/11 02:31:18;;;;;;;0.20;0.10;;;;;;;3.75;100.00;99321.66;5048949;28;20510;-48
2021/12/11 02:33:56;;;;;;;0.20;0.10;;;;;;;3.72;100.00;99326.97;5043170;28;20485;-48
2021/12/11 02:36:27;;;;;;;0.20;0.10;;;;;;;3.76;100.00;99333.88;5048515;28;20505;-49
2021/12/11 02:39:03;;;;;;;0.30;0.20;;;;;;;3.67;100.00;99344.53;5045190;28;20955;-49
2021/12/11 02:41:39;;;;;;;0.20;0.10;;;;;;;3.80;100.00;99351.34;5040534;28;20540;-49
2021/12/11 02:44:08;;;;;;;0.20;0.10;;;;;;;3.74;100.00;99355.84;5047638;28;20462;-49
2021/12/11 02:47:01;;;;;;;1.07;1.07;;;;;;;3.73;100.00;99359.34;5046858;28;20804;-50
2021/12/11 02:49:34;;;;;;;1.43;1.43;;;;;;;3.84;100.00;99366.19;5026439;28;20475;-49
2021/12/11 02:52:22;;;;;;;0.20;0.10;;;;;;;3.80;100.00;99374.13;5049495;28;20454;-49
2021/12/11 02:54:58;;;;;;;0.20;0.20;;;;;;;3.72;100.00;99376.88;5046415;28;20478;-49
2021/12/11 02:57:30;;;;;;;0.20;0.10;;;;;;;3.77;100.00;99390.81;5049383;28;20848;-48
2021/12/11 03:00:12;;;;;;;0.20;0.10;;;;;;;3.67;100.00;99398.84;5046681;28;20510;-49
2021/12/11 03:02:45;;;;;;;0.20;0.20;;;;;;;3.78;100.00;99396.94;5041761;28;20491;-48
2021/12/11 03:05:19;;;;;;;0.60;0.60;;;;;;;3.77;100.00;99401.31;5079403;28;20489;-48
2021/12/11 03:07:51;;;;;;;0.20;0.10;;;;;;;3.83;100.00;99406.47;5043559;28;20537;-48
2021/12/11 03:10:22;;;;;;;0.20;0.20;;;;;;;3.81;100.00;99407.38;5051224;28;20475;-50
2021/12/11 03:12:49;;;;;;;0.20;0.10;;;;;;;3.76;100.00;99412.72;5046216;28;20451;-48
2021/12/11 03:15:17;;;;;;;0.20;0.10;;;;;;;3.77;100.00;99417.09;5043211;28;20455;-48
2021/12/11 03:17:44;;;;;;;0.20;0.10;;;;;;;3.77;100.00;99418.84;5044344;28;20491;-49
2021/12/11 03:20:13;;;;;;;0.93;0.60;;;;;;;3.70;100.00;99422.44;5044549;28;20533;-48
2021/12/11 03:22:43;;;;;;;0.20;0.10;;;;;;;3.68;100.00;99430.34;5039369;28;20446;-48
2021/12/11 03:25:16;;;;;;;0.20;0.10;;;;;;;3.71;100.00;99429.47;5045235;28;20509;-48
2021/12/11 03:27:43;;;;;;;0.20;0.20;;;;;;;3.72;100.00;99428.56;5046320;28;20848;-49
2021/12/11 03:30:15;;;;;;;0.20;0.10;;;;;;;3.61;100.00;99438.38;5042294;28;20984;-49
2021/12/11 03:32:42;;;;;;;0.30;0.20;;;;;;;3.42;100.00;99448.25;5048999;28;20444;-49
2021/12/11 03:35:09;;;;;;;0.30;0.30;;;;;;;3.41;100.00;99451.75;5046574;28;20505;-49
2021/12/11 03:37:36;;;;;;;0.20;0.10;;;;;;;3.51;100.00;99458.63;5047596;28;20905;-48
2021/12/11 03:40:04;;;;;;;0.20;0.10;;;;;;;3.50;100.00;99465.66;5041275;28;20523;-48
2021/12/11 03:42:35;;;;;;;0.20;0.10;;;;;;;3.48;100.00;99471.81;5046414;28;20462;-48
2021/12/11 03:45:08;;;;;;;0.60;0.60;;;;;;;3.55;100.00;99478.72;5036662;28;20454;-48
2021/12/11 03:47:39;;;;;;;0.40;0.40;;;;;;;3.52;100.00;99484.03;5048160;28;20451;-49
2021/12/11 03:50:12;;;;;;;0.20;0.10;;;;;;;3.60;100.00;99479.53;5048271;28;20474;-49
2021/12/11 03:52:45;;;;;;;0.20;0.10;;;;;;;3.63;100.00;99482.13;5049871;28;20451;-49
2021/12/11 03:55:18;;;;;;;0.20;0.10;;;;;;;3.65;100.00;99484.72;5044326;28;20458;-48
2021/12/11 03:57:45;;;;;;;0.20;0.10;;;;;;;3.61;100.00;99488.28;5049700;28;20494;-48
2021/12/11 04:00:19;;;;;;;0.20;0.10;;;;;;;3.60;100.00;99494.44;5043849;28;20504;-49
2021/12/11 04:02:47;;;;;;;0.20;0.10;;;;;;;3.55;100.00;99512.88;5047966;28;20958;-48
2021/12/11 04:05:15;;;;;;;0.20;0.10;;;;;;;3.55;100.00;99507.63;5039293;28;20822;-48
2021/12/11 04:07:46;;;;;;;0.20;0.10;;;;;;;3.49;100.00;99512.97;5040863;28;20473;-49
2021/12/11 04:10:15;;;;;;;0.20;0.20;;;;;;;3.36;100.00;99514.88;5039193;28;21072;-48
2021/12/11 04:12:43;;;;;;;0.20;0.10;;;;;;;3.40;100.00;99520.94;5048398;28;20446;-49
2021/12/11 04:15:11;;;;;;;0.93;0.93;;;;;;;3.30;100.00;99524.59;5042247;28;20500;-49
2021/12/11 04:17:39;;;;;;;0.20;0.10;;;;;;;3.21;100.00;99523.78;5045678;28;20515;-48
2021/12/11 04:20:13;;;;;;;0.20;0.10;;;;;;;3.21;100.00;99525.56;5045761;28;20510;-49
2021/12/11 04:22:41;;;;;;;0.20;0.10;;;;;;;3.13;100.00;99536.13;5035846;28;20446;-49
2021/12/11 04:25:11;;;;;;;0.20;0.10;;;;;;;2.98;100.00;99539.78;5048369;28;20447;-48
2021/12/11 04:27:38;;;;;;;0.20;0.20;;;;;;;2.89;100.00;99541.66;5045314;28;20481;-48
2021/12/11 04:30:09;;;;;;;0.20;0.10;;;;;;;2.95;100.00;99560.81;5042964;28;20506;-48
2021/12/11 04:32:37;;;;;;;0.20;0.10;;;;;;;2.99;100.00;99556.41;5042008;28;20475;-48
2021/12/11 04:35:07;;;;;;;0.20;0.10;;;;;;;3.10;100.00;99559.78;5039106;28;20802;-48
2021/12/11 04:37:36;;;;;;;0.20;0.10;;;;;;;3.15;100.00;99565.00;5043642;28;20553;-49
2021/12/11 04:40:09;;;;;;;0.20;0.10;;;;;;;3.10;100.00;99577.31;5048197;28;20479;-48
2021/12/11 04:42:49;;;;;;;0.20;0.10;;;;;;;2.94;100.00;99587.09;5045553;28;20585;-48
2021/12/11 04:45:28;;;;;;;0.20;0.10;;;;;;;2.89;100.00;99587.13;5043265;28;20479;-49
2021/12/11 04:48:02;;;;;;;0.50;0.50;;;;;;;2.87;100.00;99588.88;5048669;28;20442;-50
2021/12/11 04:50:45;;;;;;;0.20;0.10;;;;;;;2.80;100.00;99588.97;5039610;28;20479;-49
2021/12/11 04:53:36;;;;;;;0.20;0.10;;;;;;;2.79;100.00;99597.72;5041318;28;20451;-48
2021/12/11 05:11:48;;;;;;;0.30;0.30;;;;;;;2.46;100.00;99625.06;5048674;28;20519;-49
2021/12/11 05:14:19;;;;;;;0.20;0.10;;;;;;;2.38;100.00;99627.75;5052286;28;20507;-48
2021/12/11 05:16:46;;;;;;;0.20;0.10;;;;;;;2.25;100.00;99629.56;5051930;28;20505;-49
2021/12/11 05:19:13;;;;;;;0.20;0.10;;;;;;;2.31;100.00;99631.28;5046816;28;20820;-48
2021/12/11 05:21:41;;;;;;;0.20;0.10;;;;;;;2.25;100.00;99633.94;5043394;28;20475;-49
2021/12/11 05:24:09;;;;;;;0.20;0.10;;;;;;;2.19;100.00;99640.06;5050811;28;20800;-49
2021/12/11 05:26:36;;;;;;;0.20;0.10;;;;;;;2.37;100.00;99650.47;5052520;28;20454;-49
2021/12/11 05:29:06;;;;;;;0.20;0.10;;;;;;;2.42;100.00;99655.69;5053612;28;20481;-49
2021/12/11 05:31:34;;;;;;;0.20;0.10;;;;;;;2.33;100.00;99656.63;5053393;28;20948;-48
2021/12/11 05:34:02;;;;;;;0.20;0.10;;;;;;;2.45;100.00;99658.28;5046205;28;20454;-49
2021/12/11 05:36:31;;;;;;;0.20;0.10;;;;;;;2.40;100.00;99670.56;5052142;28;20451;-48
2021/12/11 05:39:00;;;;;;;0.20;0.10;;;;;;;2.46;100.00;99670.50;5046545;28;20986;-48
2021/12/11 05:41:27;;;;;;;0.20;0.10;;;;;;;2.45;100.00;99681.88;5052281;28;20514;-50
2021/12/11 05:43:55;;;;;;;0.20;0.10;;;;;;;2.48;100.00;99683.66;5051689;28;20486;-49
2021/12/11 05:46:22;;;;;;;0.20;0.10;;;;;;;2.66;100.00;99688.78;5045199;28;20456;-51
2021/12/11 05:48:51;;;;;;;0.20;0.17;;;;;;;2.83;100.00;99691.28;5049817;28;20842;-49
2021/12/11 05:51:21;;;;;;;0.20;0.10;;;;;;;2.83;100.00;99702.66;5046796;28;20499;-50
2021/12/11 05:53:53;;;;;;;0.20;0.10;;;;;;;2.77;100.00;99710.56;5048451;28;20482;-49
2021/12/11 05:56:21;;;;;;;0.50;0.50;;;;;;;2.76;100.00;99705.34;5051869;28;20504;-49
2021/12/11 06:01:27;;;;;;;0.20;0.10;;;;;;;2.81;100.00;99719.28;5043318;28;20506;-49
2021/12/11 06:04:00;;;;;;;0.20;0.10;;;;;;;2.74;100.00;99713.22;5047868;28;20452;-49
2021/12/11 06:06:26;;;;;;;0.20;0.10;;;;;;;2.84;100.00;99721.88;5049395;28;20873;-49
2021/12/11 06:08:53;;;;;;;1.80;0.60;;;;;;;2.81;100.00;99724.53;5042415;28;20484;-49
2021/12/11 06:11:20;;;;;;;0.20;0.20;;;;;;;2.70;100.00;99727.22;5042455;28;20474;-50
2021/12/11 06:13:47;;;;;;;0.20;0.10;;;;;;;2.70;100.00;99742.97;5052178;28;20864;-49
2021/12/11 06:16:14;;;;;;;0.20;0.10;;;;;;;2.70;100.00;99749.97;5048772;28;20936;-49
2021/12/11 06:18:44;;;;;;;0.20;0.10;;;;;;;2.73;100.00;99755.19;5044989;28;20487;-49
2021/12/11 06:21:12;;;;;;;0.20;0.10;;;;;;;2.76;100.00;99768.31;5050756;28;20471;-49
2021/12/11 06:23:39;;;;;;;0.20;0.10;;;;;;;2.76;100.00;99768.31;5050394;28;20943;-50
2021/12/11 06:26:06;;;;;;;0.20;0.10;;;;;;;2.68;100.00;99777.06;5045206;28;20451;-49
2021/12/11 06:28:33;;;;;;;0.20;0.10;;;;;;;2.78;100.00;99788.41;5046132;28;20444;-49
2021/12/11 06:31:02;;;;;;;0.20;0.10;;;;;;;2.89;100.00;99780.47;5043971;28;20511;-49
2021/12/11 06:33:31;;;;;;;0.20;0.10;;;;;;;2.87;100.00;99785.72;5043050;28;20456;-49
2021/12/11 06:36:10;;;;;;;0.20;0.10;;;;;;;2.83;100.00;99794.50;5040749;28;20478;-49
2021/12/11 06:38:38;;;;;;;0.20;0.20;;;;;;;2.77;100.00;99798.91;5052808;28;20505;-49
2021/12/11 06:41:07;;;;;;;0.20;0.10;;;;;;;2.83;100.00;99817.25;5049971;28;20509;-49
2021/12/11 06:43:35;;;;;;;0.20;0.20;;;;;;;2.82;100.00;99820.75;5052862;28;20818;-49
2021/12/11 06:46:02;;;;;;;0.20;0.10;;;;;;;2.82;100.00;99832.13;5051832;28;20452;-50
2021/12/11 06:48:29;;;;;;;0.73;0.73;;;;;;;2.92;100.00;99846.06;5049961;28;20498;-49
2021/12/11 06:50:57;;;;;;;0.60;0.60;;;;;;;2.85;100.00;99842.59;5052200;28;20475;-50
2021/12/11 06:53:28;;;;;;;0.30;0.20;;;;;;;2.75;100.00;99847.91;5048911;28;20447;-49
2021/12/11 06:55:55;;;;;;;0.20;0.10;;;;;;;2.66;100.00;99854.06;5050336;28;20454;-49
2021/12/11 06:58:21;;;;;;;0.40;0.30;;;;;;;2.67;100.00;99853.19;5046655;28;20486;-49
2021/12/11 07:00:48;;;;;;;0.20;0.10;;;;;;;2.55;100.00;99861.97;5049352;28;20503;-49
2021/12/11 07:03:15;;;;;;;0.20;0.10;;;;;;;2.46;100.00;99868.97;5044429;28;20455;-49
2021/12/11 07:05:41;;;;;;;0.20;0.10;;;;;;;2.40;100.00;99875.13;5040957;28;21027;-48
2021/12/11 07:08:11;;;;;;;0.20;0.10;;;;;;;2.30;100.00;99876.00;5046756;28;20443;-49
2021/12/11 07:10:42;;;;;;;0.20;0.10;;;;;;;2.23;100.00;99890.91;5045164;28;20470;-49
2021/12/11 07:13:09;;;;;;;0.20;0.10;;;;;;;2.20;100.00;99888.28;5044863;28;20831;-49
2021/12/11 07:15:36;;;;;;;0.20;0.10;;;;;;;2.18;100.00;99902.25;5049649;28;20495;-49
2021/12/11 07:18:04;;;;;;;0.20;0.10;;;;;;;2.14;100.00;99911.00;5050711;28;20479;-49
2021/12/11 07:20:31;;;;;;;0.20;0.10;;;;;;;2.10;100.00;99912.75;5042251;28;20472;-49
2021/12/11 07:23:00;;;;;;;0.20;0.10;;;;;;;2.14;100.00;99924.09;5048340;28;20450;-50
2021/12/11 07:25:43;;;;;;;0.20;0.10;;;;;;;2.11;100.00;99924.09;5042901;28;20860;-49
2021/12/11 07:28:11;;;;;;;0.20;0.10;;;;;;;2.16;100.00;99931.09;5041367;28;20963;-48
2021/12/11 07:30:41;;;;;;;0.20;0.13;;;;;;;2.24;100.00;99939.84;5038430;28;20476;-49
2021/12/11 07:33:09;;;;;;;0.20;0.10;;;;;;;2.13;100.00;99938.97;5051379;28;20501;-48
2021/12/11 07:35:38;;;;;;;0.20;0.20;;;;;;;2.25;100.00;99945.94;5049481;28;20512;-49
2021/12/11 07:38:06;;;;;;;0.20;0.10;;;;;;;2.44;100.00;99950.28;5039998;28;20848;-49
2021/12/11 07:40:38;;;;;;;0.30;0.30;;;;;;;2.38;100.00;99961.66;5047278;28;20568;-47
2021/12/11 07:43:06;;;;;;;0.20;0.20;;;;;;;2.49;100.00;99968.66;5041639;28;20509;-49
2021/12/11 07:45:34;;;;;;;0.20;0.10;;;;;;;2.47;100.00;99975.63;5050975;28;20943;-48
2021/12/11 07:48:01;;;;;;;0.20;0.10;;;;;;;2.56;100.00;99988.75;5053116;28;20476;-48
2021/12/11 07:50:28;;;;;;;0.20;0.10;;;;;;;2.28;100.00;99986.16;5039186;28;20499;-49
2021/12/11 07:52:55;;;;;;;2.50;1.27;;;;;;;2.10;100.00;99980.91;5040495;28;20483;-48
2021/12/11 07:55:23;;;;;;;0.20;0.10;;;;;;;2.20;100.00;99992.28;5046128;28;20993;-48
2021/12/11 07:57:50;;;;;;;0.20;0.10;;;;;;;2.17;100.00;100000.13;5045226;28;20512;-49
2021/12/11 08:00:22;;;;;;;0.20;0.10;;;;;;;2.42;100.00;100001.88;5039097;28;20467;-48
2021/12/11 08:02:49;;;;;;;0.20;0.10;;;;;;;2.49;100.00;100003.63;5052323;28;20443;-49
2021/12/11 08:05:17;;;;;;;0.20;0.10;;;;;;;2.51;100.00;100012.38;5040034;28;20804;-48
2021/12/11 08:07:44;;;;;;;0.20;0.10;;;;;;;2.46;100.00;100006.22;5039148;28;20448;-48
2021/12/11 08:10:21;;;;;;;0.37;0.37;;;;;;;2.42;100.00;100019.34;5052555;28;20467;-48
2021/12/11 08:12:48;;;;;;;1.20;1.17;;;;;;;2.58;100.00;100023.72;5050601;28;20516;-49
2021/12/11 08:15:17;;;;;;;0.20;0.10;;;;;;;2.66;100.00;100017.59;5041827;28;20810;-49
2021/12/11 08:17:50;;;;;;;0.20;0.20;;;;;;;2.74;100.00;100032.44;5039026;28;20486;-49
2021/12/11 08:20:17;;;;;;;0.20;0.10;;;;;;;2.81;100.00;100035.06;5032951;28;20467;-48
2021/12/11 08:22:44;;;;;;;0.30;0.30;;;;;;;2.85;100.00;100041.19;5049881;28;20450;-47
2021/12/11 08:25:11;;;;;;;0.20;0.10;;;;;;;2.86;100.00;100045.56;5052042;28;20443;-49
2021/12/11 08:27:38;;;;;;;0.20;0.10;;;;;;;2.92;100.00;100046.44;5048159;28;20482;-49
2021/12/11 08:30:07;;;;;;;0.20;0.10;;;;;;;2.92;100.00;100048.19;5043612;28;20462;-48
2021/12/11 08:32:34;;;;;;;0.37;0.37;;;;;;;3.00;100.00;100053.41;5042310;28;20446;-47
2021/12/11 08:35:03;;;;;;;0.20;0.10;;;;;;;3.02;100.00;100049.94;5056531;28;20446;-48
2021/12/11 08:37:30;;;;;;;0.30;0.10;;;;;;;3.13;100.00;100071.75;5051079;28;20829;-48
2021/12/11 08:39:57;;;;;;;0.20;0.10;;;;;;;3.19;100.00;100074.38;5048088;28;20721;-48
2021/12/11 08:42:25;;;;;;;1.70;1.60;;;;;;;3.27;100.00;100088.34;5045354;28;20443;-48
2021/12/11 08:44:59;;;;;;;0.20;0.10;;;;;;;3.36;100.00;100097.97;5048980;28;20504;-48
2021/12/11 08:47:26;;;;;;;0.20;0.10;;;;;;;3.52;100.00;100088.28;5036372;28;20483;-49
2021/12/11 08:49:54;;;;;;;0.93;0.93;;;;;;;3.65;100.00;100097.00;5040155;28;20474;-48
2021/12/11 08:52:25;;;;;;;0.20;0.10;;;;;;;3.74;100.00;100108.38;5049459;28;20447;-49
2021/12/11 08:54:53;;;;;;;0.20;0.10;;;;;;;3.80;100.00;100105.72;5050935;28;20447;-49
2021/12/11 08:57:26;;;;;;;0.20;0.10;;;;;;;3.83;100.00;100121.47;5044041;28;20504;-49
2021/12/11 08:59:58;;;;;;;3.80;1.70;;;;;;;3.94;100.00;100124.06;5044382;28;20468;-48
2021/12/11 09:02:51;;;;;;;0.20;0.10;;;;;;;4.03;100.00;100123.16;5055963;28;20849;-49
2021/12/11 09:05:31;;;;;;;0.20;0.10;;;;;;;4.12;100.00;100123.97;5046441;28;20455;-49
2021/12/11 09:08:12;;;;;;;0.20;0.20;;;;;;;4.20;100.00;100131.81;5051950;28;20454;-48
2021/12/11 09:10:42;;;;;;;0.20;0.10;;;;;;;4.32;100.00;100133.50;5045102;28;20463;-48
2021/12/11 09:13:19;;;;;;;0.20;0.10;;;;;;;4.35;100.00;100139.63;5040528;28;20438;-48
2021/12/11 09:16:08;;;;;;;0.20;0.13;;;;;;;4.39;100.00;100154.53;5042621;28;20493;-48
2021/12/11 09:18:42;;;;;;;0.20;0.10;;;;;;;4.26;100.00;100150.22;5042441;28;20548;-48
2021/12/11 09:21:14;;;;;;;0.20;0.10;;;;;;;4.31;100.00;100158.94;5042238;28;20908;-48
2021/12/11 09:23:51;;;;;;;0.20;0.17;;;;;;;4.50;100.00;100158.81;5044071;28;20440;-49
2021/12/11 09:26:27;;;;;;;0.20;0.20;;;;;;;4.52;100.00;100167.59;5049201;28;20505;-48
2021/12/11 09:29:00;;;;;;;0.20;0.10;;;;;;;4.73;100.00;100159.56;5050044;28;20475;-49
2021/12/11 09:31:43;;;;;;;2.37;2.37;;;;;;;5.00;100.00;100171.66;5055381;28;20493;-49
2021/12/11 09:34:22;;;;;;;0.30;0.20;;;;;;;4.66;100.00;100177.19;5055528;28;20439;-49
2021/12/11 09:36:55;;;;;;;0.20;0.10;;;;;;;4.58;100.00;100188.63;5042311;28;20451;-48
2021/12/11 09:39:27;;;;;;;0.20;0.10;;;;;;;4.73;100.00;100188.53;5035683;28;20526;-48
2021/12/11 09:41:53;;;;;;;1.03;1.03;;;;;;;4.66;100.00;100190.34;5048680;28;20501;-49
2021/12/11 09:44:29;;;;;;;0.20;0.10;;;;;;;4.65;100.00;100191.19;5042621;28;20967;-48
2021/12/11 09:47:00;;;;;;;0.20;0.10;;;;;;;4.70;100.00;100199.06;5052051;28;20444;-48
2021/12/11 09:49:32;;;;;;;0.20;0.20;;;;;;;4.66;100.00;100205.22;5038496;28;20460;-49
2021/12/11 09:52:15;;;;;;;0.40;0.40;;;;;;;4.83;100.00;100206.00;5052890;28;20998;-48
2021/12/11 09:54:46;;;;;;;0.20;0.10;;;;;;;4.75;100.00;100203.41;5054861;28;20501;-50
2021/12/11 09:57:17;;;;;;;0.30;0.10;;;;;;;4.52;100.00;100207.06;5042433;28;20470;-48
2021/12/11 09:59:46;;;;;;;0.20;0.10;;;;;;;4.92;100.00;100213.81;5041360;28;20546;-48
2021/12/11 10:02:18;;;;;;;2.10;2.10;;;;;;;4.84;100.00;100225.31;5046534;28;20475;-48
2021/12/11 10:05:04;;;;;;;0.20;0.10;;;;;;;4.75;100.00;100227.13;5048011;28;20485;-48
2021/12/11 10:07:37;;;;;;;0.20;0.10;;;;;;;4.84;100.00;100218.28;5046695;28;20439;-48
2021/12/11 10:10:22;;;;;;;0.20;0.10;;;;;;;5.13;100.00;100227.75;5048093;28;20468;-48
2021/12/11 10:12:53;;;;;;;0.20;0.10;;;;;;;5.18;100.00;100231.22;5050253;28;20496;-48
2021/12/11 10:15:22;;;;;;;0.30;0.30;;;;;;;5.28;100.00;100238.16;5054280;28;20451;-48
2021/12/11 10:17:54;;;;;;;0.20;0.10;;;;;;;5.15;100.00;100239.16;5051071;28;20479;-49
2021/12/11 10:20:47;;;;;;;0.20;0.10;;;;;;;5.39;100.00;100244.22;5043892;28;20467;-48
2021/12/11 10:23:18;;;;;;;0.20;0.20;;;;;;;5.23;100.00;100237.34;5034159;28;20448;-49
2021/12/11 10:25:47;;;;;;;0.30;0.30;;;;;;;5.13;100.00;100239.16;5049604;28;20446;-47
2021/12/11 10:28:18;;;;;;;0.20;0.10;;;;;;;5.26;100.00;100246.09;5054117;28;20490;-49
2021/12/11 10:30:50;;;;;;;3.63;1.60;;;;;;;5.32;100.00;100242.50;5049595;28;21051;-48
2021/12/11 10:33:20;;;;;;;0.20;0.10;;;;;;;5.29;100.00;100250.44;5045208;28;20447;-48
2021/12/11 10:35:50;;;;;;;0.20;0.10;;;;;;;5.24;100.00;100245.22;5048524;28;20448;-49
2021/12/11 10:38:18;;;;;;;0.20;0.10;;;;;;;5.15;100.00;100253.19;5045806;28;20907;-47
2021/12/11 10:40:52;;;;;;;0.20;0.10;;;;;;;5.25;100.00;100260.16;5040146;28;20517;-48
2021/12/11 10:43:36;;;;;;;0.20;0.10;;;;;;;5.30;100.00;100263.59;5033768;28;20882;-48
2021/12/11 10:46:06;;;;;;;0.20;0.10;;;;;;;5.46;100.00;100266.13;5033832;28;20452;-47
2021/12/11 10:48:35;;;;;;;0.30;0.20;;;;;;;5.27;100.00;100261.00;5047737;28;20442;-47
2021/12/11 10:51:08;;;;;;;0.77;0.77;;;;;;;5.28;100.00;100265.38;5042875;28;20520;-47
2021/12/11 10:53:36;;;;;;;0.20;0.10;;;;;;;5.51;100.00;100266.97;5041143;28;20446;-48
2021/12/11 10:56:05;;;;;;;0.20;0.20;;;;;;;5.48;100.00;100270.53;5043191;28;20489;-48
2021/12/11 10:58:39;;;;;;;0.20;0.10;;;;;;;5.46;100.00;100263.47;5051919;28;20491;-48
2021/12/11 11:01:10;;;;;;;0.40;0.40;;;;;;;5.68;100.00;100269.47;5052547;28;20517;-49
2021/12/11 11:03:41;;;;;;;0.20;0.13;;;;;;;5.63;100.00;100272.16;5040402;28;20493;-48
2021/12/11 11:06:08;;;;;;;1.13;0.50;;;;;;;5.94;100.00;100265.72;5040366;28;20535;-47
2021/12/11 11:08:37;;;;;;;0.20;0.20;;;;;;;5.86;100.00;100264.00;5053043;28;20446;-48
2021/12/11 11:11:09;;;;;;;0.20;0.10;;;;;;;5.79;100.00;100267.59;5051678;28;20532;-48
2021/12/11 11:13:35;;;;;;;0.20;0.20;;;;;;;5.65;100.00;100273.00;5042266;28;20442;-48
2021/12/11 11:16:03;;;;;;;0.40;0.40;;;;;;;5.86;100.00;100274.56;5051058;28;20450;-48
2021/12/11 11:18:29;;;;;;;0.30;0.20;;;;;;;5.60;100.00;100272.16;5042344;28;21029;-48
2021/12/11 11:20:59;;;;;;;0.20;0.10;;;;;;;5.53;100.00;100273.97;5039717;28;20541;-49
2021/12/11 11:23:26;;;;;;;0.20;0.10;;;;;;;5.60;100.00;100280.06;5044004;28;20448;-47
2021/12/11 11:25:56;;;;;;;0.20;0.20;;;;;;;5.47;100.00;100281.91;5049756;28;20482;-48
2021/12/11 11:28:26;;;;;;;0.20;0.20;;;;;;;5.52;100.00;100284.53;5053890;28;20542;-48
2021/12/11 11:30:59;;;;;;;0.20;0.10;;;;;;;5.54;100.00;100281.00;5041366;28;20474;-48
2021/12/11 11:33:27;;;;;;;0.87;0.87;;;;;;;5.60;100.00;100293.25;5041591;28;20498;-49
2021/12/11 11:35:57;;;;;;;0.20;0.20;;;;;;;5.76;100.00;100294.00;5047282;28;20443;-48
2021/12/11 11:38:28;;;;;;;0.30;0.20;;;;;;;5.62;100.00;100291.50;5046005;28;20487;-48
2021/12/11 11:40:59;;;;;;;0.20;0.20;;;;;;;5.57;100.00;100303.81;5034312;28;20468;-49
2021/12/11 11:43:26;;;;;;;0.30;0.20;;;;;;;5.53;100.00;100294.19;5039842;28;20444;-49
2021/12/11 11:45:54;;;;;;;0.20;0.10;;;;;;;5.48;100.00;100304.78;5046015;28;20459;-49
2021/12/11 11:48:24;;;;;;;2.00;1.90;;;;;;;5.39;100.00;100304.84;5046244;28;20517;-49
2021/12/11 11:51:12;;;;;;;0.30;0.20;;;;;;;5.57;100.00;100304.69;5044119;28;20458;-48
2021/12/11 11:53:39;;;;;;;0.20;0.10;;;;;;;5.50;100.00;100317.97;5039473;28;20868;-47
2021/12/11 11:56:10;;;;;;;0.70;0.70;;;;;;;5.57;100.00;100319.63;5040821;28;20458;-47
2021/12/11 11:58:37;;;;;;;0.30;0.30;;;;;;;5.45;100.00;100317.97;5051685;28;20491;-49
2021/12/11 12:01:16;;;;;;;0.20;0.13;;;;;;;5.73;100.00;100329.16;5052414;28;20517;-49
2021/12/11 12:03:43;;;;;;;0.30;0.30;;;;;;;5.71;100.00;100330.94;5032364;28;20447;-49
2021/12/11 12:06:22;;;;;;;0.27;0.27;;;;;;;5.58;100.00;100332.81;5046533;28;20486;-49
2021/12/11 12:08:50;;;;;;;0.20;0.10;;;;;;;5.55;100.00;100338.09;5052566;28;20482;-49